Accueil
METAR-TAF:

METAR-TAF

Aéroports :

Le Touquet, France

Aéroport du Touquet-Côte d'Opale

latitude: 50-30-53N, longitude: 001-37-39E, altitude: 6 m

Observation

Le bulletin a été fait il y a 2 heures et 49 minutes, à 16:30 UTC
Vent 11 kt de sud-ouest, variant entre sud et ouest/sud-ouest
Température 12°C
Humidité 88%
Pression 1011 hPa
Visibilité 10 km ou plus
Ciel couvert à une hauteur de 3900 ft

METAR: LFAT 211630Z AUTO 23011KT 180V250 9999 OVC039 12/10 Q1011 TEMPO OVC012

Heure: 20:19 (19:19 UTC)

Prévision

Le bulletin a été fait il y a 5 heures et 19 minutes, à 14:00 UTC
Prévision valable du 21 à 15 UTC au 21 à 24 UTC
Vent 15 kt de sud-ouest
Visibilité 10 km ou plus
Nuages fragmentés à une hauteur de 1600 ft
Nuages fragmentés à une hauteur de 2500 ft
Probabilité 40% :
Temporairement
du 21 à 15 UTC au 21 à 24 UTC
Ciel couvert à une hauteur de 1200 ft

TAF: LFAT 211400Z 2115/2124 22015KT 9999 BKN016 BKN025 PROB40 TEMPO 2115/2124 OVC012

Observations et prévisions météorologiques de plus de 4000 aéroports (messages METAR et TAF).

Les stations disponibles sont représentées par des disques jaunes et rouges sur la carte.

Passer la souris dessus pour voir le nom de la station.

Cliquer dessus pour voir les observations et prévisions météorologiques.

Pour changer de carte: cliquez sur les boutons verts avec une croix noire pour zoomer, sur le bouton vert avec un tiret pour effectuer un zoom arrière, ou sur les flèches vertes pour les cartes adjacentes.


METAR-TAF: